sim
Sign-in with your pilot id or email,
or register
Callsign
Passwort

Schedule Details

Flight Number: RYR4774 (2)
Departure: Milan Bergamo Il Caravaggio International Airport (LIME) at 13:15
Arrival: Thessaloniki International Airport (LGTS) at 15:20
Route: Ryanair Passenger Schedule. Enter filed route here before submitting Pirep.

Weather Information
Getting current METAR information for LIME 211520Z 22004KT 170V260 6000 NSC 14/05 Q1026 NOSIG
Getting current METAR information for LGTS 211520Z 35006KT CAVOK 16/00 Q1021 NOSIG

Schedule Frequency

Route Map